createdAt,value
2019-02-04T00:00:34.180Z,15.50
2019-02-04T00:03:01.020Z,15.40
2019-02-04T00:05:27.605Z,15.40
2019-02-04T00:07:54.258Z,15.50
2019-02-04T00:10:20.833Z,15.40
2019-02-04T00:12:47.424Z,15.90
2019-02-04T00:15:14.639Z,15.30
2019-02-04T00:17:41.256Z,15.30
2019-02-04T00:20:07.862Z,15.30
2019-02-04T00:22:34.534Z,15.30
2019-02-04T00:25:01.121Z,15.40
2019-02-04T00:27:27.867Z,15.40
2019-02-04T00:29:54.531Z,15.30
2019-02-04T00:32:21.185Z,15.30
2019-02-04T00:34:48.044Z,15.30
2019-02-04T00:37:14.789Z,15.30
2019-02-04T00:39:41.375Z,15.20
2019-02-04T00:42:07.987Z,15.20
2019-02-04T00:44:34.610Z,15.30
2019-02-04T00:47:01.195Z,15.20
2019-02-04T00:49:27.784Z,15.20
2019-02-04T00:51:54.809Z,15.10
2019-02-04T00:54:21.400Z,15.10
2019-02-04T00:56:48.037Z,15.20
2019-02-04T00:59:14.717Z,15.10
2019-02-04T01:01:41.422Z,15.10
2019-02-04T01:04:08.013Z,15.30
2019-02-04T01:06:34.639Z,15.20
2019-02-04T01:09:01.214Z,15.20
2019-02-04T01:11:28.280Z,15.30
2019-02-04T01:13:54.939Z,15.30
2019-02-04T01:16:21.517Z,15.20
2019-02-04T01:18:48.090Z,15.30
2019-02-04T01:21:14.713Z,15.20
2019-02-04T01:23:41.299Z,15.30
2019-02-04T01:26:07.938Z,15.30
2019-02-04T01:28:34.988Z,15.60
2019-02-04T01:31:01.570Z,15.30
2019-02-04T01:33:28.145Z,15.30
2019-02-04T01:35:54.795Z,15.20
2019-02-04T01:38:21.468Z,15.20
2019-02-04T01:40:48.108Z,15.20
2019-02-04T01:43:14.736Z,15.20
2019-02-04T01:45:41.898Z,15.20
2019-02-04T01:48:08.472Z,15.20
2019-02-04T01:50:35.094Z,15.20
2019-02-04T01:53:01.674Z,15.20
2019-02-04T01:55:28.282Z,15.20
2019-02-04T01:57:55.154Z,15.20
2019-02-04T02:00:21.731Z,15.20
2019-02-04T02:02:48.305Z,15.10
2019-02-04T02:05:15.239Z,15.10
2019-02-04T02:07:41.823Z,15.10
2019-02-04T02:10:08.450Z,15.10
2019-02-04T02:12:35.077Z,15.10
2019-02-04T02:15:01.813Z,15.30
2019-02-04T02:17:28.477Z,15.00
2019-02-04T02:19:55.128Z,15.00
2019-02-04T02:22:22.095Z,15.60
2019-02-04T02:24:48.678Z,15.00
2019-02-04T02:27:15.301Z,15.00
2019-02-04T02:29:41.870Z,15.00
2019-02-04T02:32:08.445Z,15.00
2019-02-04T02:34:35.062Z,14.90
2019-02-04T02:37:01.857Z,14.90
2019-02-04T02:39:28.719Z,14.90
2019-02-04T02:41:55.576Z,15.00
2019-02-04T02:44:22.190Z,14.80
2019-02-04T02:46:48.767Z,14.90
2019-02-04T02:49:15.392Z,14.90
2019-02-04T02:51:41.971Z,14.80
2019-02-04T02:54:08.545Z,14.80
2019-02-04T02:56:36.329Z,14.80
2019-02-04T02:59:03.185Z,14.80
2019-02-04T03:01:29.763Z,14.80
2019-02-04T03:03:56.421Z,14.70
2019-02-04T03:06:23.005Z,14.80
2019-02-04T03:08:49.643Z,14.80
2019-02-04T03:11:16.297Z,14.80
2019-02-04T03:13:42.871Z,14.70
2019-02-04T03:16:09.460Z,14.80
2019-02-04T03:18:36.086Z,14.80
2019-02-04T03:21:02.697Z,14.70
2019-02-04T03:23:29.282Z,14.70
2019-02-04T03:25:56.001Z,14.70
2019-02-04T03:28:22.610Z,14.70
2019-02-04T03:30:49.226Z,14.70
2019-02-04T03:33:15.863Z,14.70
2019-02-04T03:35:42.803Z,14.70
2019-02-04T03:38:09.373Z,14.70
2019-02-04T03:40:36.020Z,14.60
2019-02-04T03:43:02.595Z,14.60
2019-02-04T03:45:29.186Z,14.50
2019-02-04T03:48:04.315Z,14.60
2019-02-04T03:50:24.386Z,14.60
2019-02-04T03:52:51.240Z,14.60
2019-02-04T03:55:17.992Z,14.50
2019-02-04T03:57:44.576Z,14.50
2019-02-04T04:00:11.175Z,14.60
2019-02-04T04:02:37.864Z,14.50
2019-02-04T04:05:04.441Z,14.60
2019-02-04T04:07:31.092Z,14.60
2019-02-04T04:09:58.263Z,14.60
2019-02-04T04:12:24.893Z,14.50
2019-02-04T04:14:51.583Z,14.60
2019-02-04T04:17:18.212Z,14.60
2019-02-04T04:19:44.785Z,14.50
2019-02-04T04:22:11.364Z,14.50
2019-02-04T04:24:38.025Z,14.60
2019-02-04T04:27:04.707Z,14.50
2019-02-04T04:29:31.289Z,14.50
2019-02-04T04:31:57.982Z,14.60
2019-02-04T04:34:24.566Z,14.50
2019-02-04T04:36:51.155Z,14.40
2019-02-04T04:39:17.759Z,14.50
2019-02-04T04:41:44.367Z,14.40
2019-02-04T04:44:10.940Z,14.40
2019-02-04T04:46:37.847Z,14.40
2019-02-04T04:49:04.426Z,14.40
2019-02-04T04:51:31.081Z,14.30
2019-02-04T04:53:57.731Z,14.30
2019-02-04T04:56:24.301Z,14.30
2019-02-04T04:58:50.878Z,14.30
2019-02-04T05:01:17.501Z,14.30
2019-02-04T05:03:44.082Z,14.30
2019-02-04T05:06:10.651Z,14.30
2019-02-04T05:08:37.281Z,14.30
2019-02-04T05:11:03.870Z,14.20
2019-02-04T05:13:30.430Z,14.30
2019-02-04T05:15:57.100Z,14.30
2019-02-04T05:18:23.724Z,14.30
2019-02-04T05:20:50.299Z,14.20
2019-02-04T05:23:18.714Z,14.20
2019-02-04T05:25:45.419Z,14.20
2019-02-04T05:28:11.999Z,14.30
2019-02-04T05:30:38.640Z,14.20
2019-02-04T05:33:05.206Z,14.20
2019-02-04T05:35:31.791Z,14.30
2019-02-04T05:37:58.745Z,14.20
2019-02-04T05:40:25.899Z,14.30
2019-02-04T05:42:52.488Z,14.20
2019-02-04T05:45:19.133Z,14.20
2019-02-04T05:47:45.784Z,14.20
2019-02-04T05:50:12.366Z,14.20
2019-02-04T05:52:38.985Z,14.30
2019-02-04T05:55:05.554Z,14.80
2019-02-04T05:57:32.126Z,14.80
2019-02-04T05:59:59.519Z,14.20
2019-02-04T06:02:26.098Z,14.30
2019-02-04T06:04:52.675Z,14.30
2019-02-04T06:07:19.331Z,14.30
2019-02-04T06:09:45.915Z,14.30
2019-02-04T06:12:12.503Z,14.30
2019-02-04T06:14:39.118Z,14.30
2019-02-04T06:17:06.095Z,14.30
2019-02-04T06:19:32.683Z,14.30
2019-02-04T06:21:59.479Z,14.40
2019-02-04T06:24:26.055Z,14.40
2019-02-04T06:26:52.625Z,14.30
2019-02-04T06:29:19.257Z,14.30
2019-02-04T06:31:45.827Z,14.30
2019-02-04T06:34:12.395Z,14.30
2019-02-04T06:36:39.407Z,14.30
2019-02-04T06:39:05.985Z,14.20
2019-02-04T06:41:32.593Z,14.30
2019-02-04T06:43:59.251Z,14.30
2019-02-04T06:46:25.826Z,14.30
2019-02-04T06:48:52.398Z,14.20
2019-02-04T06:51:19.025Z,14.10
2019-02-04T06:53:45.985Z,14.10
2019-02-04T06:56:12.564Z,14.20
2019-02-04T06:58:39.216Z,14.20
2019-02-04T07:01:05.797Z,14.80
2019-02-04T07:03:32.425Z,14.10
2019-02-04T07:05:59.075Z,14.10
2019-02-04T07:08:25.653Z,14.10
2019-02-04T07:10:52.224Z,14.10
2019-02-04T07:13:19.253Z,14.00
2019-02-04T07:15:45.835Z,14.00
2019-02-04T07:18:12.425Z,14.10
2019-02-04T07:20:39.054Z,14.00
2019-02-04T07:23:05.633Z,14.10
2019-02-04T07:25:32.214Z,14.10
2019-02-04T07:27:59.004Z,14.00
2019-02-04T07:30:25.584Z,14.00
2019-02-04T07:32:52.432Z,14.00
2019-02-04T07:35:19.054Z,14.00
2019-02-04T07:37:45.633Z,14.00
2019-02-04T07:40:12.214Z,13.90
2019-02-04T07:42:38.840Z,13.90
2019-02-04T07:45:05.421Z,14.00
2019-02-04T07:47:32.022Z,13.90
2019-02-04T07:49:58.677Z,13.90
2019-02-04T07:52:25.644Z,13.90
2019-02-04T07:54:52.230Z,14.00
2019-02-04T07:57:18.907Z,14.00
2019-02-04T07:59:46.427Z,14.00
2019-02-04T08:02:13.001Z,13.90
2019-02-04T08:04:39.621Z,13.90
2019-02-04T08:07:06.210Z,14.50
2019-02-04T08:09:33.303Z,14.00
2019-02-04T08:12:00.017Z,13.90
2019-02-04T08:14:26.596Z,13.90
2019-02-04T08:16:53.178Z,13.90
2019-02-04T08:19:19.813Z,13.90
2019-02-04T08:21:46.407Z,13.90
2019-02-04T08:24:12.977Z,13.90
2019-02-04T08:26:39.668Z,13.90
2019-02-04T08:29:06.678Z,13.90
2019-02-04T08:31:33.348Z,13.90
2019-02-04T08:34:00.009Z,13.90
2019-02-04T08:36:26.606Z,13.90
2019-02-04T08:38:53.269Z,13.90
2019-02-04T08:41:19.890Z,13.80
2019-02-04T08:43:46.469Z,13.90
2019-02-04T08:46:13.090Z,13.80
2019-02-04T08:48:39.993Z,13.90
2019-02-04T08:51:06.579Z,13.80
2019-02-04T08:53:33.153Z,13.90
2019-02-04T08:55:59.897Z,13.90
2019-02-04T08:58:26.498Z,13.80
2019-02-04T09:00:53.091Z,13.80
2019-02-04T09:03:19.722Z,13.80
2019-02-04T09:05:46.307Z,13.80
2019-02-04T09:08:13.472Z,13.80
2019-02-04T09:10:40.110Z,13.70
2019-02-04T09:13:06.699Z,13.70
2019-02-04T09:15:33.277Z,13.70
2019-02-04T09:17:59.940Z,13.70
2019-02-04T09:20:26.600Z,13.70
2019-02-04T09:22:53.188Z,13.70
2019-02-04T09:25:19.895Z,13.60
2019-02-04T09:27:47.058Z,13.70
2019-02-04T09:30:14.599Z,13.60
2019-02-04T09:32:41.242Z,13.60
2019-02-04T09:35:07.884Z,13.60
2019-02-04T09:37:34.571Z,13.60
2019-02-04T09:40:01.479Z,13.60
2019-02-04T09:42:28.059Z,13.60
2019-02-04T09:44:54.637Z,13.60
2019-02-04T09:47:21.740Z,13.50
2019-02-04T09:49:48.337Z,13.50
2019-02-04T09:52:15.013Z,13.50
2019-02-04T09:54:41.687Z,13.50
2019-02-04T09:57:08.256Z,13.50
2019-02-04T09:59:35.793Z,13.50
2019-02-04T10:02:02.789Z,13.40
2019-02-04T10:04:29.369Z,13.40
2019-02-04T10:06:56.127Z,13.40
2019-02-04T10:09:22.779Z,13.40
2019-02-04T10:11:49.357Z,13.40
2019-02-04T10:14:15.950Z,13.40
2019-02-04T10:16:42.649Z,13.40
2019-02-04T10:19:09.455Z,13.20
2019-02-04T10:21:36.048Z,13.30
2019-02-04T10:24:03.309Z,13.30
2019-02-04T10:26:30.028Z,13.20
2019-02-04T10:28:56.806Z,13.20
2019-02-04T10:31:23.492Z,13.20
2019-02-04T10:33:50.245Z,13.30
2019-02-04T10:36:17.042Z,13.20
2019-02-04T10:38:43.894Z,13.20
2019-02-04T10:41:10.744Z,13.20
2019-02-04T10:43:37.415Z,13.10
2019-02-04T10:46:04.808Z,13.20
2019-02-04T10:48:33.234Z,13.10
2019-02-04T10:50:59.993Z,13.20
2019-02-04T10:53:26.879Z,13.20
2019-02-04T10:55:53.462Z,13.20
2019-02-04T10:58:20.248Z,13.10
2019-02-04T11:00:47.322Z,13.10
2019-02-04T11:03:13.919Z,13.10
2019-02-04T11:05:40.559Z,13.10
2019-02-04T11:08:07.549Z,13.10
2019-02-04T11:10:34.340Z,13.00
2019-02-04T11:13:01.006Z,13.00
2019-02-04T11:15:27.960Z,13.00
2019-02-04T11:17:54.918Z,13.00
2019-02-04T11:20:21.618Z,13.00
2019-02-04T11:22:48.416Z,13.10
2019-02-04T11:25:15.015Z,13.00
2019-02-04T11:27:41.717Z,13.40
2019-02-04T11:30:08.495Z,12.90
2019-02-04T11:32:35.388Z,12.90
2019-02-04T11:35:02.000Z,12.90
2019-02-04T11:37:29.095Z,13.00
2019-02-04T11:39:55.699Z,12.90
2019-02-04T11:42:22.493Z,12.90
2019-02-04T11:44:49.172Z,12.90
2019-02-04T11:47:15.851Z,12.80
2019-02-04T11:49:42.529Z,12.90
2019-02-04T11:52:09.174Z,12.90
2019-02-04T11:54:36.341Z,12.90
2019-02-04T11:57:02.918Z,12.90
2019-02-04T11:59:29.710Z,12.90
2019-02-04T12:01:56.298Z,12.90
2019-02-04T12:04:22.880Z,13.40
2019-02-04T12:06:49.509Z,12.80
2019-02-04T12:09:16.077Z,12.80
2019-02-04T12:11:42.662Z,12.80
2019-02-04T12:14:09.589Z,12.80
2019-02-04T12:16:36.161Z,12.80
2019-02-04T12:19:02.792Z,12.80
2019-02-04T12:21:29.406Z,12.80
2019-02-04T12:23:56.264Z,12.80
2019-02-04T12:26:22.847Z,12.80
2019-02-04T12:28:49.465Z,12.80
2019-02-04T12:31:16.044Z,12.80
2019-02-04T12:33:42.632Z,12.80
2019-02-04T12:36:09.291Z,12.80
2019-02-04T12:38:35.867Z,12.80
2019-02-04T12:41:02.669Z,12.70
2019-02-04T12:43:29.506Z,12.80
2019-02-04T12:45:56.086Z,12.70
2019-02-04T12:48:22.676Z,12.70
2019-02-04T12:50:49.821Z,12.70
2019-02-04T12:53:16.433Z,12.70
2019-02-04T12:55:43.011Z,12.70
2019-02-04T12:58:09.650Z,12.70
2019-02-04T13:00:36.224Z,12.70
2019-02-04T13:03:02.801Z,12.70
2019-02-04T13:05:29.468Z,12.70
2019-02-04T13:07:56.050Z,12.70
2019-02-04T13:10:22.914Z,12.70
2019-02-04T13:12:49.588Z,12.70
2019-02-04T13:15:16.216Z,12.70
2019-02-04T13:17:42.790Z,12.80
2019-02-04T13:20:09.445Z,12.70
2019-02-04T13:22:36.023Z,12.70
2019-02-04T13:25:02.639Z,13.20
2019-02-04T13:27:29.641Z,12.70
2019-02-04T13:29:56.260Z,12.70
2019-02-04T13:32:22.986Z,12.70
2019-02-04T13:34:49.798Z,12.70
2019-02-04T13:37:16.366Z,12.70
2019-02-04T13:39:43.754Z,12.70
2019-02-04T13:42:10.390Z,12.70
2019-02-04T13:44:36.973Z,12.70
2019-02-04T13:47:05.858Z,12.60
2019-02-04T13:49:32.403Z,12.60
2019-02-04T13:51:58.988Z,12.60
2019-02-04T13:54:25.655Z,12.60
2019-02-04T13:56:52.628Z,12.60
2019-02-04T13:59:19.210Z,12.60
2019-02-04T14:01:45.910Z,12.60
2019-02-04T14:04:12.923Z,12.60
2019-02-04T14:06:39.510Z,12.60
2019-02-04T14:09:06.190Z,12.60
2019-02-04T14:11:32.826Z,12.60
2019-02-04T14:13:59.414Z,12.60
2019-02-04T14:16:26.090Z,12.60
2019-02-04T14:18:53.010Z,12.60
2019-02-04T14:21:20.106Z,12.60
2019-02-04T14:23:47.085Z,12.60
2019-02-04T14:26:13.706Z,12.60
2019-02-04T14:28:40.291Z,12.70
2019-02-04T14:31:06.974Z,12.60
2019-02-04T14:33:33.605Z,12.60
2019-02-04T14:36:00.181Z,12.60
2019-02-04T14:38:26.763Z,12.60
2019-02-04T14:40:53.440Z,12.60
2019-02-04T14:43:20.026Z,12.60
2019-02-04T14:45:46.605Z,12.70
2019-02-04T14:48:14.169Z,12.60
2019-02-04T14:50:40.740Z,12.50
2019-02-04T14:53:07.327Z,12.60
2019-02-04T14:55:33.947Z,12.50
2019-02-04T14:58:01.525Z,12.60
2019-02-04T15:00:28.353Z,12.60
2019-02-04T15:02:55.024Z,12.60
2019-02-04T15:05:21.612Z,12.60
2019-02-04T15:07:48.184Z,12.60
2019-02-04T15:10:14.845Z,12.60
2019-02-04T15:12:42.007Z,12.60
2019-02-04T15:15:08.589Z,12.60
2019-02-04T15:17:35.232Z,12.70
2019-02-04T15:20:01.913Z,12.70
2019-02-04T15:22:33.526Z,12.70
2019-02-04T15:24:57.124Z,12.70
2019-02-04T15:27:23.875Z,12.70
2019-02-04T15:29:51.122Z,12.70
2019-02-04T15:32:18.099Z,12.70
2019-02-04T15:34:44.676Z,12.70
2019-02-04T15:37:11.264Z,12.70
2019-02-04T15:39:37.885Z,12.70
2019-02-04T15:42:04.478Z,12.80
2019-02-04T15:44:31.080Z,12.80
2019-02-04T15:46:58.419Z,12.80
2019-02-04T15:49:25.025Z,12.90
2019-02-04T15:51:51.744Z,12.90
2019-02-04T15:54:18.446Z,12.90
2019-02-04T15:56:45.193Z,12.90
2019-02-04T15:59:11.924Z,12.90
2019-02-04T16:01:39.590Z,12.40
2019-02-04T16:04:09.094Z,12.90
2019-02-04T16:06:38.506Z,12.90
2019-02-04T16:09:05.757Z,12.90
2019-02-04T16:11:32.819Z,12.90
2019-02-04T16:14:06.713Z,12.90
2019-02-04T16:16:33.780Z,12.90
2019-02-04T16:19:00.502Z,12.90
2019-02-04T16:21:27.458Z,13.00
2019-02-04T16:23:54.657Z,13.00
2019-02-04T16:26:21.444Z,13.00
2019-02-04T16:28:48.181Z,13.00
2019-02-04T16:31:17.608Z,13.10
2019-02-04T16:33:44.219Z,13.00
2019-02-04T16:36:10.857Z,13.00
2019-02-04T16:38:40.288Z,13.00
2019-02-04T16:41:07.165Z,13.00
2019-02-04T16:43:33.830Z,13.10
2019-02-04T16:46:00.471Z,13.00
2019-02-04T16:48:27.041Z,13.00
2019-02-04T16:51:10.529Z,13.00
2019-02-04T16:53:22.214Z,13.00
2019-02-04T16:55:49.365Z,13.00
2019-02-04T16:58:15.959Z,13.00
2019-02-04T17:00:43.068Z,13.00
2019-02-04T17:03:09.652Z,13.00
2019-02-04T17:05:36.296Z,13.00
2019-02-04T17:08:02.932Z,13.00
2019-02-04T17:10:29.551Z,13.00
2019-02-04T17:12:56.319Z,13.00
2019-02-04T17:15:25.556Z,13.70
2019-02-04T17:17:51.653Z,13.00
2019-02-04T17:20:18.225Z,13.00
2019-02-04T17:22:44.847Z,13.00
2019-02-04T17:25:11.429Z,13.00
2019-02-04T17:27:38.014Z,13.10
2019-02-04T17:30:04.660Z,13.00
2019-02-04T17:32:31.373Z,13.10
2019-02-04T17:34:58.049Z,13.10
2019-02-04T17:37:24.808Z,13.10
2019-02-04T17:39:51.427Z,13.10
2019-02-04T17:42:18.004Z,13.10
2019-02-04T17:44:44.622Z,13.10
2019-02-04T17:47:11.208Z,13.10
2019-02-04T17:49:37.793Z,13.10
2019-02-04T17:52:05.285Z,13.00
2019-02-04T17:54:32.116Z,13.10
2019-02-04T17:56:58.715Z,13.10
2019-02-04T17:59:25.509Z,13.10
2019-02-04T18:01:52.310Z,13.20
2019-02-04T18:04:18.910Z,13.10
2019-02-04T18:06:45.626Z,13.10
2019-02-04T18:09:12.268Z,13.00
2019-02-04T18:11:39.430Z,13.00
2019-02-04T18:14:06.060Z,13.00
2019-02-04T18:16:32.640Z,13.00
2019-02-04T18:18:59.233Z,13.00
2019-02-04T18:21:25.876Z,13.10
2019-02-04T18:23:52.450Z,13.20
2019-02-04T18:26:19.147Z,13.20
2019-02-04T18:28:47.852Z,13.40
2019-02-04T18:31:14.441Z,13.40
2019-02-04T18:33:41.222Z,13.50
2019-02-04T18:36:07.858Z,13.50
2019-02-04T18:38:34.442Z,13.60
2019-02-04T18:41:01.500Z,13.60
2019-02-04T18:43:28.311Z,13.70
2019-02-04T18:45:54.912Z,13.70
2019-02-04T18:48:22.406Z,13.70
2019-02-04T18:50:49.046Z,13.70
2019-02-04T18:53:17.935Z,13.90
2019-02-04T18:55:44.515Z,13.80
2019-02-04T18:58:11.158Z,13.90
2019-02-04T19:00:37.736Z,13.80
2019-02-04T19:03:16.606Z,13.80
2019-02-04T19:05:33.017Z,13.80
2019-02-04T19:07:59.596Z,13.80
2019-02-04T19:10:26.178Z,13.80
2019-02-04T19:12:55.200Z,14.30
2019-02-04T19:15:21.797Z,13.90
2019-02-04T19:17:48.394Z,14.00
2019-02-04T19:20:15.636Z,14.60
2019-02-04T19:22:42.395Z,13.90
2019-02-04T19:25:08.964Z,14.00
2019-02-04T19:27:35.594Z,14.00
2019-02-04T19:30:02.169Z,14.10
2019-02-04T19:32:28.763Z,14.10
2019-02-04T19:34:55.389Z,14.00
2019-02-04T19:37:23.017Z,14.10
2019-02-04T19:39:50.049Z,14.10
2019-02-04T19:42:17.839Z,14.10
2019-02-04T19:44:44.891Z,14.30
2019-02-04T19:47:11.477Z,14.50
2019-02-04T19:49:38.221Z,14.50
2019-02-04T19:52:04.804Z,14.50
2019-02-04T19:54:31.425Z,14.60
2019-02-04T19:56:58.630Z,14.70
2019-02-04T19:59:25.266Z,14.70
2019-02-04T20:01:51.853Z,14.80
2019-02-04T20:04:18.752Z,14.90
2019-02-04T20:06:45.393Z,14.90
2019-02-04T20:09:11.978Z,14.90
2019-02-04T20:11:38.638Z,14.90
2019-02-04T20:14:05.882Z,14.90
2019-02-04T20:16:33.002Z,14.90
2019-02-04T20:18:59.624Z,14.90
2019-02-04T20:21:26.207Z,14.90
2019-02-04T20:23:52.882Z,14.80
2019-02-04T20:26:19.511Z,14.80
2019-02-04T20:28:46.235Z,14.90
2019-02-04T20:31:12.808Z,15.00
2019-02-04T20:33:39.632Z,15.00
2019-02-04T20:36:06.502Z,14.90
2019-02-04T20:38:33.278Z,14.90
2019-02-04T20:40:59.930Z,15.00
2019-02-04T20:43:26.673Z,15.00
2019-02-04T20:45:53.335Z,15.00
2019-02-04T20:48:19.974Z,15.00
2019-02-04T20:50:46.563Z,15.10
2019-02-04T20:53:13.479Z,15.00
2019-02-04T20:55:40.921Z,15.00
2019-02-04T20:58:08.365Z,15.00
2019-02-04T21:00:35.002Z,15.00
2019-02-04T21:03:02.159Z,14.90
2019-02-04T21:05:28.947Z,15.10
2019-02-04T21:07:55.762Z,15.00
2019-02-04T21:10:22.389Z,15.00
2019-02-04T21:12:49.044Z,15.00
2019-02-04T21:15:15.931Z,15.00
2019-02-04T21:17:42.611Z,14.90
2019-02-04T21:20:09.259Z,15.50
2019-02-04T21:22:35.839Z,14.80
2019-02-04T21:25:02.543Z,14.80
2019-02-04T21:27:29.112Z,14.80
2019-02-04T21:29:55.708Z,14.80
2019-02-04T21:32:23.007Z,14.80
2019-02-04T21:34:49.759Z,14.70
2019-02-04T21:37:16.344Z,14.70
2019-02-04T21:39:43.036Z,14.70
2019-02-04T21:42:09.608Z,14.70
2019-02-04T21:44:36.250Z,14.70
2019-02-04T21:47:02.896Z,14.60
2019-02-04T21:49:29.480Z,14.60
2019-02-04T21:51:56.839Z,14.60
2019-02-04T21:54:23.620Z,14.60
2019-02-04T21:56:50.237Z,14.60
2019-02-04T21:59:16.811Z,14.70
2019-02-04T22:01:43.516Z,14.70
2019-02-04T22:04:10.097Z,14.60
2019-02-04T22:06:36.673Z,14.70
2019-02-04T22:09:03.304Z,14.60
2019-02-04T22:11:29.891Z,14.60
2019-02-04T22:13:57.147Z,14.60
2019-02-04T22:16:23.827Z,14.60
2019-02-04T22:18:50.885Z,14.70
2019-02-04T22:21:17.472Z,14.60
2019-02-04T22:23:44.125Z,14.60
2019-02-04T22:26:10.699Z,14.60
2019-02-04T22:28:38.755Z,14.70
2019-02-04T22:31:05.453Z,14.60
2019-02-04T22:33:32.033Z,14.60
2019-02-04T22:35:58.743Z,14.60
2019-02-04T22:38:37.612Z,14.50
2019-02-04T22:41:04.496Z,14.70
2019-02-04T22:43:31.356Z,14.50
2019-02-04T22:45:57.955Z,14.70
2019-02-04T22:48:24.917Z,14.60
2019-02-04T22:50:51.539Z,14.60
2019-02-04T22:53:18.129Z,14.60
2019-02-04T22:55:44.821Z,14.70
2019-02-04T22:58:11.512Z,14.60
2019-02-04T23:00:38.081Z,14.60
2019-02-04T23:03:04.675Z,14.60
2019-02-04T23:05:31.781Z,14.70
2019-02-04T23:07:58.544Z,14.60
2019-02-04T23:10:25.117Z,14.70
2019-02-04T23:12:51.738Z,14.70
2019-02-04T23:15:18.606Z,14.70
2019-02-04T23:17:45.197Z,14.70
2019-02-04T23:20:11.814Z,15.30
2019-02-04T23:22:38.504Z,14.70
2019-02-04T23:25:05.160Z,14.80
2019-02-04T23:27:31.866Z,14.70
2019-02-04T23:29:58.450Z,14.80
2019-02-04T23:32:25.122Z,14.80
2019-02-04T23:34:51.866Z,14.80
2019-02-04T23:37:18.439Z,14.80
2019-02-04T23:39:45.017Z,14.70
2019-02-04T23:42:12.154Z,14.70
2019-02-04T23:44:38.900Z,14.80
2019-02-04T23:47:05.518Z,14.80
2019-02-04T23:49:32.210Z,14.80
2019-02-04T23:51:58.775Z,14.70
2019-02-04T23:54:25.348Z,14.80
2019-02-04T23:56:52.241Z,14.70
2019-02-04T23:59:19.083Z,14.70
